EHGG/GRQ METAR and TAF weather

Enter ICAO airport designator
Station Type Date Time Source
EHGG METAR 2019/10/15 08:55 UTC NOAA

EHGG 150855Z AUTO 20007KT 9999 NSC 16/14 Q1005 NOSIG


Station Type Date Time Source
EHGG Decoded METAR 2019/10/15 08:55 UTC NOAA

Groningen Airport Eelde, Netherlands (EHGG) 53-08N 006-35E 4M
Oct 15, 2019 - 04:55 AM EDT / 2019.10.15 0855 UTC
Wind: from the SSW (200 degrees) at 8 MPH (7 KT):0
Visibility: greater than 7 mile(s):0
Temperature: 60 F (16 C)
Dew Point: 57 F (14 C)
Relative Humidity: 87%
Pressure (altimeter): 29.68 in. Hg (1005 hPa)
ob: EHGG 150855Z AUTO 20007KT 9999 NSC 16/14 Q1005 NOSIG
cycle: 9

Station Type Date Time Source
EHGG TAF 2019/10/15 06:30 UTC NOAA

TAF EHGG 150525Z 1506/1612 21008KT CAVOK
TEMPO 1511/1602 6000 -RA BKN012 PROB40
TEMPO 1514/1602 4000 RA BKN006 PROB30 1603/1607 BKN006
BECMG 1609/1612 18013KT

Example: see airport list